<?xml version="1.0" encoding="UTF-8" standalone="no" ?>
<gpx xmlns="http://www.topografix.com/GPX/1/1" xmlns:xsi="http://www.w3.org/2001/XMLSchema-instance" xsi:schemaLocation="http://www.topografix.com/GPX/1/1 http://www.topografix.com/GPX/1/1/gpx.xsd" version="1.1" creator="VisuGPX - https://www.visugpx.com">
  <metadata>
    <name>Randonnée du 03/10/2021 à 15:07</name>
  </metadata>
  <trk>
    <name><![CDATA[Randonnée du 03/10/2021 à 15:07]]></name>
    <trkseg>
      <trkpt lat="48.22354" lon="-1.17502">
        <ele>178</ele>
        <time>2021-10-03T15:07:17+02:00</time>
      </trkpt>
      <trkpt lat="48.22352" lon="-1.17488">
        <ele>184</ele>
        <time>2021-10-03T15:07:31+02:00</time>
      </trkpt>
      <trkpt lat="48.22353" lon="-1.17475">
        <ele>182</ele>
        <time>2021-10-03T15:07:41+02:00</time>
      </trkpt>
      <trkpt lat="48.22356" lon="-1.17462">
        <ele>185</ele>
        <time>2021-10-03T15:07:51+02:00</time>
      </trkpt>
      <trkpt lat="48.22356" lon="-1.17448">
        <ele>190</ele>
        <time>2021-10-03T15:07:59+02:00</time>
      </trkpt>
      <trkpt lat="48.2236" lon="-1.17435">
        <ele>192</ele>
        <time>2021-10-03T15:08:08+02:00</time>
      </trkpt>
      <trkpt lat="48.22362" lon="-1.17422">
        <ele>192</ele>
        <time>2021-10-03T15:08:19+02:00</time>
      </trkpt>
      <trkpt lat="48.22365" lon="-1.17409">
        <ele>192</ele>
        <time>2021-10-03T15:08:28+02:00</time>
      </trkpt>
      <trkpt lat="48.22369" lon="-1.17396">
        <ele>187</ele>
        <time>2021-10-03T15:08:40+02:00</time>
      </trkpt>
      <trkpt lat="48.22375" lon="-1.17386">
        <ele>187</ele>
        <time>2021-10-03T15:08:48+02:00</time>
      </trkpt>
      <trkpt lat="48.22382" lon="-1.17376">
        <ele>189</ele>
        <time>2021-10-03T15:08:57+02:00</time>
      </trkpt>
      <trkpt lat="48.2239" lon="-1.17367">
        <ele>192</ele>
        <time>2021-10-03T15:09:05+02:00</time>
      </trkpt>
      <trkpt lat="48.22396" lon="-1.17357">
        <ele>193</ele>
        <time>2021-10-03T15:09:13+02:00</time>
      </trkpt>
      <trkpt lat="48.22403" lon="-1.17347">
        <ele>194</ele>
        <time>2021-10-03T15:09:22+02:00</time>
      </trkpt>
      <trkpt lat="48.22411" lon="-1.17338">
        <ele>194</ele>
        <time>2021-10-03T15:09:31+02:00</time>
      </trkpt>
      <trkpt lat="48.22416" lon="-1.17327">
        <ele>193</ele>
        <time>2021-10-03T15:09:41+02:00</time>
      </trkpt>
      <trkpt lat="48.22423" lon="-1.17316">
        <ele>193</ele>
        <time>2021-10-03T15:09:50+02:00</time>
      </trkpt>
      <trkpt lat="48.2243" lon="-1.17308">
        <ele>195</ele>
        <time>2021-10-03T15:09:58+02:00</time>
      </trkpt>
      <trkpt lat="48.22437" lon="-1.17299">
        <ele>195</ele>
        <time>2021-10-03T15:10:07+02:00</time>
      </trkpt>
      <trkpt lat="48.22444" lon="-1.1729">
        <ele>197</ele>
        <time>2021-10-03T15:10:16+02:00</time>
      </trkpt>
      <trkpt lat="48.22452" lon="-1.17282">
        <ele>198</ele>
        <time>2021-10-03T15:10:25+02:00</time>
      </trkpt>
      <trkpt lat="48.22459" lon="-1.17273">
        <ele>200</ele>
        <time>2021-10-03T15:10:35+02:00</time>
      </trkpt>
      <trkpt lat="48.22466" lon="-1.17264">
        <ele>201</ele>
        <time>2021-10-03T15:10:44+02:00</time>
      </trkpt>
      <trkpt lat="48.22473" lon="-1.17254">
        <ele>200</ele>
        <time>2021-10-03T15:10:53+02:00</time>
      </trkpt>
      <trkpt lat="48.22481" lon="-1.17244">
        <ele>200</ele>
        <time>2021-10-03T15:11:02+02:00</time>
      </trkpt>
      <trkpt lat="48.22488" lon="-1.17235">
        <ele>201</ele>
        <time>2021-10-03T15:11:11+02:00</time>
      </trkpt>
      <trkpt lat="48.22495" lon="-1.17226">
        <ele>199</ele>
        <time>2021-10-03T15:11:20+02:00</time>
      </trkpt>
      <trkpt lat="48.22503" lon="-1.17218">
        <ele>199</ele>
        <time>2021-10-03T15:11:29+02:00</time>
      </trkpt>
      <trkpt lat="48.22512" lon="-1.17211">
        <ele>198</ele>
        <time>2021-10-03T15:11:38+02:00</time>
      </trkpt>
      <trkpt lat="48.22521" lon="-1.17207">
        <ele>200</ele>
        <time>2021-10-03T15:11:47+02:00</time>
      </trkpt>
      <trkpt lat="48.2253" lon="-1.17203">
        <ele>201</ele>
        <time>2021-10-03T15:11:57+02:00</time>
      </trkpt>
      <trkpt lat="48.22537" lon="-1.17195">
        <ele>202</ele>
        <time>2021-10-03T15:12:06+02:00</time>
      </trkpt>
      <trkpt lat="48.22542" lon="-1.17184">
        <ele>202</ele>
        <time>2021-10-03T15:12:16+02:00</time>
      </trkpt>
      <trkpt lat="48.22543" lon="-1.17169">
        <ele>202</ele>
        <time>2021-10-03T15:12:27+02:00</time>
      </trkpt>
      <trkpt lat="48.22541" lon="-1.17156">
        <ele>202</ele>
        <time>2021-10-03T15:12:36+02:00</time>
      </trkpt>
      <trkpt lat="48.22539" lon="-1.17142">
        <ele>202</ele>
        <time>2021-10-03T15:12:46+02:00</time>
      </trkpt>
      <trkpt lat="48.22537" lon="-1.17129">
        <ele>203</ele>
        <time>2021-10-03T15:12:56+02:00</time>
      </trkpt>
      <trkpt lat="48.22528" lon="-1.1713">
        <ele>203</ele>
        <time>2021-10-03T15:13:06+02:00</time>
      </trkpt>
      <trkpt lat="48.22532" lon="-1.17116">
        <ele>204</ele>
        <time>2021-10-03T15:13:20+02:00</time>
      </trkpt>
      <trkpt lat="48.22534" lon="-1.17102">
        <ele>205</ele>
        <time>2021-10-03T15:13:30+02:00</time>
      </trkpt>
      <trkpt lat="48.22534" lon="-1.17088">
        <ele>206</ele>
        <time>2021-10-03T15:13:39+02:00</time>
      </trkpt>
      <trkpt lat="48.22531" lon="-1.17076">
        <ele>207</ele>
        <time>2021-10-03T15:13:49+02:00</time>
      </trkpt>
      <trkpt lat="48.22529" lon="-1.17061">
        <ele>209</ele>
        <time>2021-10-03T15:13:59+02:00</time>
      </trkpt>
      <trkpt lat="48.22526" lon="-1.17048">
        <ele>208</ele>
        <time>2021-10-03T15:14:08+02:00</time>
      </trkpt>
      <trkpt lat="48.22523" lon="-1.17035">
        <ele>206</ele>
        <time>2021-10-03T15:14:26+02:00</time>
      </trkpt>
      <trkpt lat="48.2252" lon="-1.17022">
        <ele>205</ele>
        <time>2021-10-03T15:14:36+02:00</time>
      </trkpt>
      <trkpt lat="48.22518" lon="-1.17008">
        <ele>207</ele>
        <time>2021-10-03T15:14:46+02:00</time>
      </trkpt>
      <trkpt lat="48.22515" lon="-1.16995">
        <ele>207</ele>
        <time>2021-10-03T15:14:55+02:00</time>
      </trkpt>
      <trkpt lat="48.22512" lon="-1.16982">
        <ele>208</ele>
        <time>2021-10-03T15:15:04+02:00</time>
      </trkpt>
      <trkpt lat="48.22509" lon="-1.16968">
        <ele>207</ele>
        <time>2021-10-03T15:15:14+02:00</time>
      </trkpt>
      <trkpt lat="48.22505" lon="-1.16954">
        <ele>208</ele>
        <time>2021-10-03T15:15:23+02:00</time>
      </trkpt>
      <trkpt lat="48.22504" lon="-1.1694">
        <ele>208</ele>
        <time>2021-10-03T15:15:33+02:00</time>
      </trkpt>
      <trkpt lat="48.22504" lon="-1.16926">
        <ele>209</ele>
        <time>2021-10-03T15:15:42+02:00</time>
      </trkpt>
      <trkpt lat="48.22502" lon="-1.16913">
        <ele>210</ele>
        <time>2021-10-03T15:15:50+02:00</time>
      </trkpt>
      <trkpt lat="48.22501" lon="-1.16899">
        <ele>209</ele>
        <time>2021-10-03T15:15:58+02:00</time>
      </trkpt>
      <trkpt lat="48.22501" lon="-1.16886">
        <ele>209</ele>
        <time>2021-10-03T15:16:07+02:00</time>
      </trkpt>
      <trkpt lat="48.225" lon="-1.16871">
        <ele>210</ele>
        <time>2021-10-03T15:16:17+02:00</time>
      </trkpt>
      <trkpt lat="48.22499" lon="-1.16857">
        <ele>209</ele>
        <time>2021-10-03T15:16:26+02:00</time>
      </trkpt>
      <trkpt lat="48.22499" lon="-1.16843">
        <ele>210</ele>
        <time>2021-10-03T15:16:33+02:00</time>
      </trkpt>
      <trkpt lat="48.22499" lon="-1.16829">
        <ele>212</ele>
        <time>2021-10-03T15:16:40+02:00</time>
      </trkpt>
      <trkpt lat="48.22499" lon="-1.16815">
        <ele>214</ele>
        <time>2021-10-03T15:16:48+02:00</time>
      </trkpt>
      <trkpt lat="48.22498" lon="-1.16801">
        <ele>216</ele>
        <time>2021-10-03T15:16:56+02:00</time>
      </trkpt>
      <trkpt lat="48.22498" lon="-1.16786">
        <ele>218</ele>
        <time>2021-10-03T15:17:05+02:00</time>
      </trkpt>
      <trkpt lat="48.22497" lon="-1.16772">
        <ele>219</ele>
        <time>2021-10-03T15:17:14+02:00</time>
      </trkpt>
      <trkpt lat="48.22495" lon="-1.16757">
        <ele>220</ele>
        <time>2021-10-03T15:17:23+02:00</time>
      </trkpt>
      <trkpt lat="48.22492" lon="-1.16744">
        <ele>220</ele>
        <time>2021-10-03T15:17:34+02:00</time>
      </trkpt>
      <trkpt lat="48.2249" lon="-1.1673">
        <ele>220</ele>
        <time>2021-10-03T15:17:42+02:00</time>
      </trkpt>
      <trkpt lat="48.22486" lon="-1.16716">
        <ele>220</ele>
        <time>2021-10-03T15:17:50+02:00</time>
      </trkpt>
      <trkpt lat="48.22483" lon="-1.16703">
        <ele>220</ele>
        <time>2021-10-03T15:17:59+02:00</time>
      </trkpt>
      <trkpt lat="48.2248" lon="-1.16689">
        <ele>221</ele>
        <time>2021-10-03T15:18:08+02:00</time>
      </trkpt>
      <trkpt lat="48.22477" lon="-1.16675">
        <ele>222</ele>
        <time>2021-10-03T15:18:17+02:00</time>
      </trkpt>
      <trkpt lat="48.22473" lon="-1.16662">
        <ele>221</ele>
        <time>2021-10-03T15:18:25+02:00</time>
      </trkpt>
      <trkpt lat="48.2247" lon="-1.16649">
        <ele>222</ele>
        <time>2021-10-03T15:18:32+02:00</time>
      </trkpt>
      <trkpt lat="48.22468" lon="-1.16636">
        <ele>221</ele>
        <time>2021-10-03T15:18:40+02:00</time>
      </trkpt>
      <trkpt lat="48.22465" lon="-1.16621">
        <ele>218</ele>
        <time>2021-10-03T15:18:51+02:00</time>
      </trkpt>
      <trkpt lat="48.22463" lon="-1.16607">
        <ele>218</ele>
        <time>2021-10-03T15:19:01+02:00</time>
      </trkpt>
      <trkpt lat="48.22462" lon="-1.16594">
        <ele>219</ele>
        <time>2021-10-03T15:19:12+02:00</time>
      </trkpt>
      <trkpt lat="48.22462" lon="-1.1658">
        <ele>218</ele>
        <time>2021-10-03T15:19:20+02:00</time>
      </trkpt>
      <trkpt lat="48.22461" lon="-1.16564">
        <ele>218</ele>
        <time>2021-10-03T15:19:34+02:00</time>
      </trkpt>
      <trkpt lat="48.2246" lon="-1.1655">
        <ele>217</ele>
        <time>2021-10-03T15:19:45+02:00</time>
      </trkpt>
      <trkpt lat="48.22459" lon="-1.16536">
        <ele>216</ele>
        <time>2021-10-03T15:19:53+02:00</time>
      </trkpt>
      <trkpt lat="48.22459" lon="-1.16522">
        <ele>218</ele>
        <time>2021-10-03T15:20:02+02:00</time>
      </trkpt>
      <trkpt lat="48.2246" lon="-1.16507">
        <ele>218</ele>
        <time>2021-10-03T15:20:11+02:00</time>
      </trkpt>
      <trkpt lat="48.22461" lon="-1.16492">
        <ele>219</ele>
        <time>2021-10-03T15:20:19+02:00</time>
      </trkpt>
      <trkpt lat="48.2246" lon="-1.16477">
        <ele>219</ele>
        <time>2021-10-03T15:20:29+02:00</time>
      </trkpt>
      <trkpt lat="48.2246" lon="-1.16464">
        <ele>218</ele>
        <time>2021-10-03T15:20:38+02:00</time>
      </trkpt>
      <trkpt lat="48.22459" lon="-1.16449">
        <ele>219</ele>
        <time>2021-10-03T15:21:03+02:00</time>
      </trkpt>
      <trkpt lat="48.22461" lon="-1.16435">
        <ele>218</ele>
        <time>2021-10-03T15:21:20+02:00</time>
      </trkpt>
      <trkpt lat="48.22462" lon="-1.1642">
        <ele>217</ele>
        <time>2021-10-03T15:21:31+02:00</time>
      </trkpt>
      <trkpt lat="48.22463" lon="-1.16406">
        <ele>217</ele>
        <time>2021-10-03T15:21:39+02:00</time>
      </trkpt>
      <trkpt lat="48.22463" lon="-1.16392">
        <ele>217</ele>
        <time>2021-10-03T15:21:48+02:00</time>
      </trkpt>
      <trkpt lat="48.22464" lon="-1.16377">
        <ele>219</ele>
        <time>2021-10-03T15:21:57+02:00</time>
      </trkpt>
      <trkpt lat="48.22465" lon="-1.16363">
        <ele>220</ele>
        <time>2021-10-03T15:22:05+02:00</time>
      </trkpt>
      <trkpt lat="48.22465" lon="-1.16348">
        <ele>220</ele>
        <time>2021-10-03T15:22:14+02:00</time>
      </trkpt>
      <trkpt lat="48.22465" lon="-1.16335">
        <ele>221</ele>
        <time>2021-10-03T15:22:22+02:00</time>
      </trkpt>
      <trkpt lat="48.22465" lon="-1.1632">
        <ele>222</ele>
        <time>2021-10-03T15:22:30+02:00</time>
      </trkpt>
      <trkpt lat="48.22466" lon="-1.16307">
        <ele>222</ele>
        <time>2021-10-03T15:22:38+02:00</time>
      </trkpt>
      <trkpt lat="48.22468" lon="-1.16292">
        <ele>222</ele>
        <time>2021-10-03T15:22:47+02:00</time>
      </trkpt>
      <trkpt lat="48.22468" lon="-1.16277">
        <ele>223</ele>
        <time>2021-10-03T15:22:56+02:00</time>
      </trkpt>
      <trkpt lat="48.22469" lon="-1.16264">
        <ele>224</ele>
        <time>2021-10-03T15:23:04+02:00</time>
      </trkpt>
      <trkpt lat="48.2247" lon="-1.16249">
        <ele>223</ele>
        <time>2021-10-03T15:23:13+02:00</time>
      </trkpt>
      <trkpt lat="48.22471" lon="-1.16235">
        <ele>223</ele>
        <time>2021-10-03T15:23:22+02:00</time>
      </trkpt>
      <trkpt lat="48.22471" lon="-1.1622">
        <ele>222</ele>
        <time>2021-10-03T15:23:31+02:00</time>
      </trkpt>
      <trkpt lat="48.22471" lon="-1.16206">
        <ele>222</ele>
        <time>2021-10-03T15:23:39+02:00</time>
      </trkpt>
      <trkpt lat="48.22472" lon="-1.16192">
        <ele>223</ele>
        <time>2021-10-03T15:23:47+02:00</time>
      </trkpt>
      <trkpt lat="48.22473" lon="-1.16178">
        <ele>223</ele>
        <time>2021-10-03T15:23:55+02:00</time>
      </trkpt>
      <trkpt lat="48.22473" lon="-1.16164">
        <ele>223</ele>
        <time>2021-10-03T15:24:03+02:00</time>
      </trkpt>
      <trkpt lat="48.22473" lon="-1.1615">
        <ele>223</ele>
        <time>2021-10-03T15:24:11+02:00</time>
      </trkpt>
      <trkpt lat="48.22474" lon="-1.16136">
        <ele>223</ele>
        <time>2021-10-03T15:24:20+02:00</time>
      </trkpt>
      <trkpt lat="48.22475" lon="-1.16123">
        <ele>223</ele>
        <time>2021-10-03T15:24:30+02:00</time>
      </trkpt>
      <trkpt lat="48.22478" lon="-1.16109">
        <ele>222</ele>
        <time>2021-10-03T15:24:39+02:00</time>
      </trkpt>
      <trkpt lat="48.22486" lon="-1.16101">
        <ele>222</ele>
        <time>2021-10-03T15:24:48+02:00</time>
      </trkpt>
      <trkpt lat="48.22495" lon="-1.16097">
        <ele>220</ele>
        <time>2021-10-03T15:24:58+02:00</time>
      </trkpt>
      <trkpt lat="48.22504" lon="-1.16097">
        <ele>219</ele>
        <time>2021-10-03T15:25:13+02:00</time>
      </trkpt>
      <trkpt lat="48.22514" lon="-1.16097">
        <ele>220</ele>
        <time>2021-10-03T15:25:22+02:00</time>
      </trkpt>
      <trkpt lat="48.22524" lon="-1.16097">
        <ele>220</ele>
        <time>2021-10-03T15:25:32+02:00</time>
      </trkpt>
      <trkpt lat="48.22534" lon="-1.16097">
        <ele>219</ele>
        <time>2021-10-03T15:25:41+02:00</time>
      </trkpt>
      <trkpt lat="48.22542" lon="-1.161">
        <ele>219</ele>
        <time>2021-10-03T15:25:50+02:00</time>
      </trkpt>
      <trkpt lat="48.22552" lon="-1.16103">
        <ele>219</ele>
        <time>2021-10-03T15:26:00+02:00</time>
      </trkpt>
      <trkpt lat="48.22561" lon="-1.16104">
        <ele>219</ele>
        <time>2021-10-03T15:26:09+02:00</time>
      </trkpt>
      <trkpt lat="48.22571" lon="-1.16103">
        <ele>218</ele>
        <time>2021-10-03T15:26:17+02:00</time>
      </trkpt>
      <trkpt lat="48.22581" lon="-1.16104">
        <ele>218</ele>
        <time>2021-10-03T15:26:28+02:00</time>
      </trkpt>
      <trkpt lat="48.2259" lon="-1.16105">
        <ele>217</ele>
        <time>2021-10-03T15:26:36+02:00</time>
      </trkpt>
      <trkpt lat="48.22599" lon="-1.16107">
        <ele>216</ele>
        <time>2021-10-03T15:26:44+02:00</time>
      </trkpt>
      <trkpt lat="48.22609" lon="-1.16106">
        <ele>215</ele>
        <time>2021-10-03T15:26:53+02:00</time>
      </trkpt>
      <trkpt lat="48.22618" lon="-1.16106">
        <ele>215</ele>
        <time>2021-10-03T15:27:02+02:00</time>
      </trkpt>
      <trkpt lat="48.22628" lon="-1.16106">
        <ele>215</ele>
        <time>2021-10-03T15:27:12+02:00</time>
      </trkpt>
      <trkpt lat="48.22637" lon="-1.16107">
        <ele>214</ele>
        <time>2021-10-03T15:27:21+02:00</time>
      </trkpt>
      <trkpt lat="48.22646" lon="-1.16109">
        <ele>214</ele>
        <time>2021-10-03T15:27:28+02:00</time>
      </trkpt>
      <trkpt lat="48.22656" lon="-1.1611">
        <ele>214</ele>
        <time>2021-10-03T15:27:37+02:00</time>
      </trkpt>
      <trkpt lat="48.22666" lon="-1.1611">
        <ele>214</ele>
        <time>2021-10-03T15:27:46+02:00</time>
      </trkpt>
      <trkpt lat="48.22674" lon="-1.16113">
        <ele>212</ele>
        <time>2021-10-03T15:27:54+02:00</time>
      </trkpt>
      <trkpt lat="48.22684" lon="-1.16115">
        <ele>210</ele>
        <time>2021-10-03T15:28:05+02:00</time>
      </trkpt>
      <trkpt lat="48.22694" lon="-1.16116">
        <ele>209</ele>
        <time>2021-10-03T15:28:15+02:00</time>
      </trkpt>
      <trkpt lat="48.22703" lon="-1.16118">
        <ele>209</ele>
        <time>2021-10-03T15:28:23+02:00</time>
      </trkpt>
      <trkpt lat="48.22713" lon="-1.16118">
        <ele>209</ele>
        <time>2021-10-03T15:28:32+02:00</time>
      </trkpt>
      <trkpt lat="48.22723" lon="-1.16118">
        <ele>209</ele>
        <time>2021-10-03T15:28:41+02:00</time>
      </trkpt>
      <trkpt lat="48.22732" lon="-1.16117">
        <ele>208</ele>
        <time>2021-10-03T15:28:50+02:00</time>
      </trkpt>
      <trkpt lat="48.22743" lon="-1.16116">
        <ele>207</ele>
        <time>2021-10-03T15:28:59+02:00</time>
      </trkpt>
      <trkpt lat="48.22752" lon="-1.16117">
        <ele>208</ele>
        <time>2021-10-03T15:29:07+02:00</time>
      </trkpt>
      <trkpt lat="48.22762" lon="-1.16119">
        <ele>207</ele>
        <time>2021-10-03T15:29:15+02:00</time>
      </trkpt>
      <trkpt lat="48.22771" lon="-1.1612">
        <ele>207</ele>
        <time>2021-10-03T15:29:23+02:00</time>
      </trkpt>
      <trkpt lat="48.22781" lon="-1.16121">
        <ele>207</ele>
        <time>2021-10-03T15:29:32+02:00</time>
      </trkpt>
      <trkpt lat="48.2279" lon="-1.16123">
        <ele>206</ele>
        <time>2021-10-03T15:29:41+02:00</time>
      </trkpt>
      <trkpt lat="48.228" lon="-1.16125">
        <ele>205</ele>
        <time>2021-10-03T15:29:49+02:00</time>
      </trkpt>
      <trkpt lat="48.2281" lon="-1.16126">
        <ele>206</ele>
        <time>2021-10-03T15:29:57+02:00</time>
      </trkpt>
      <trkpt lat="48.22819" lon="-1.16127">
        <ele>205</ele>
        <time>2021-10-03T15:30:04+02:00</time>
      </trkpt>
      <trkpt lat="48.22828" lon="-1.16129">
        <ele>204</ele>
        <time>2021-10-03T15:30:13+02:00</time>
      </trkpt>
      <trkpt lat="48.22837" lon="-1.16129">
        <ele>205</ele>
        <time>2021-10-03T15:30:21+02:00</time>
      </trkpt>
      <trkpt lat="48.22846" lon="-1.1613">
        <ele>205</ele>
        <time>2021-10-03T15:30:30+02:00</time>
      </trkpt>
      <trkpt lat="48.22856" lon="-1.16131">
        <ele>204</ele>
        <time>2021-10-03T15:30:39+02:00</time>
      </trkpt>
      <trkpt lat="48.22866" lon="-1.16132">
        <ele>204</ele>
        <time>2021-10-03T15:30:48+02:00</time>
      </trkpt>
      <trkpt lat="48.22875" lon="-1.16133">
        <ele>203</ele>
        <time>2021-10-03T15:30:57+02:00</time>
      </trkpt>
      <trkpt lat="48.22884" lon="-1.16134">
        <ele>203</ele>
        <time>2021-10-03T15:31:06+02:00</time>
      </trkpt>
      <trkpt lat="48.22894" lon="-1.16134">
        <ele>203</ele>
        <time>2021-10-03T15:31:14+02:00</time>
      </trkpt>
      <trkpt lat="48.22904" lon="-1.16136">
        <ele>203</ele>
        <time>2021-10-03T15:31:23+02:00</time>
      </trkpt>
      <trkpt lat="48.22913" lon="-1.16137">
        <ele>203</ele>
        <time>2021-10-03T15:31:30+02:00</time>
      </trkpt>
      <trkpt lat="48.22922" lon="-1.16138">
        <ele>203</ele>
        <time>2021-10-03T15:31:39+02:00</time>
      </trkpt>
      <trkpt lat="48.22931" lon="-1.1614">
        <ele>203</ele>
        <time>2021-10-03T15:31:46+02:00</time>
      </trkpt>
      <trkpt lat="48.2294" lon="-1.16142">
        <ele>202</ele>
        <time>2021-10-03T15:31:53+02:00</time>
      </trkpt>
      <trkpt lat="48.2295" lon="-1.16144">
        <ele>203</ele>
        <time>2021-10-03T15:32:01+02:00</time>
      </trkpt>
      <trkpt lat="48.2296" lon="-1.16146">
        <ele>203</ele>
        <time>2021-10-03T15:32:10+02:00</time>
      </trkpt>
      <trkpt lat="48.22969" lon="-1.16147">
        <ele>203</ele>
        <time>2021-10-03T15:32:17+02:00</time>
      </trkpt>
      <trkpt lat="48.22979" lon="-1.16147">
        <ele>204</ele>
        <time>2021-10-03T15:32:25+02:00</time>
      </trkpt>
      <trkpt lat="48.22988" lon="-1.16147">
        <ele>204</ele>
        <time>2021-10-03T15:32:34+02:00</time>
      </trkpt>
      <trkpt lat="48.22998" lon="-1.16148">
        <ele>203</ele>
        <time>2021-10-03T15:32:42+02:00</time>
      </trkpt>
      <trkpt lat="48.23008" lon="-1.16148">
        <ele>202</ele>
        <time>2021-10-03T15:32:49+02:00</time>
      </trkpt>
      <trkpt lat="48.23018" lon="-1.16148">
        <ele>202</ele>
        <time>2021-10-03T15:32:57+02:00</time>
      </trkpt>
      <trkpt lat="48.23028" lon="-1.16149">
        <ele>202</ele>
        <time>2021-10-03T15:33:06+02:00</time>
      </trkpt>
      <trkpt lat="48.23038" lon="-1.1615">
        <ele>203</ele>
        <time>2021-10-03T15:33:13+02:00</time>
      </trkpt>
      <trkpt lat="48.23047" lon="-1.1615">
        <ele>204</ele>
        <time>2021-10-03T15:33:20+02:00</time>
      </trkpt>
      <trkpt lat="48.23056" lon="-1.16151">
        <ele>203</ele>
        <time>2021-10-03T15:33:27+02:00</time>
      </trkpt>
      <trkpt lat="48.23066" lon="-1.16153">
        <ele>204</ele>
        <time>2021-10-03T15:33:35+02:00</time>
      </trkpt>
      <trkpt lat="48.23075" lon="-1.16155">
        <ele>205</ele>
        <time>2021-10-03T15:33:44+02:00</time>
      </trkpt>
      <trkpt lat="48.23084" lon="-1.16159">
        <ele>204</ele>
        <time>2021-10-03T15:33:54+02:00</time>
      </trkpt>
      <trkpt lat="48.23093" lon="-1.16165">
        <ele>202</ele>
        <time>2021-10-03T15:34:03+02:00</time>
      </trkpt>
      <trkpt lat="48.23098" lon="-1.16176">
        <ele>203</ele>
        <time>2021-10-03T15:34:11+02:00</time>
      </trkpt>
      <trkpt lat="48.23098" lon="-1.1619">
        <ele>203</ele>
        <time>2021-10-03T15:34:18+02:00</time>
      </trkpt>
      <trkpt lat="48.23097" lon="-1.16204">
        <ele>203</ele>
        <time>2021-10-03T15:34:26+02:00</time>
      </trkpt>
      <trkpt lat="48.23095" lon="-1.16218">
        <ele>204</ele>
        <time>2021-10-03T15:34:35+02:00</time>
      </trkpt>
      <trkpt lat="48.23094" lon="-1.16232">
        <ele>205</ele>
        <time>2021-10-03T15:34:43+02:00</time>
      </trkpt>
      <trkpt lat="48.23092" lon="-1.16247">
        <ele>204</ele>
        <time>2021-10-03T15:34:52+02:00</time>
      </trkpt>
      <trkpt lat="48.2309" lon="-1.16261">
        <ele>204</ele>
        <time>2021-10-03T15:35:01+02:00</time>
      </trkpt>
      <trkpt lat="48.23088" lon="-1.16277">
        <ele>203</ele>
        <time>2021-10-03T15:35:10+02:00</time>
      </trkpt>
      <trkpt lat="48.23087" lon="-1.16291">
        <ele>203</ele>
        <time>2021-10-03T15:35:19+02:00</time>
      </trkpt>
      <trkpt lat="48.23085" lon="-1.16306">
        <ele>204</ele>
        <time>2021-10-03T15:35:29+02:00</time>
      </trkpt>
      <trkpt lat="48.23083" lon="-1.1632">
        <ele>205</ele>
        <time>2021-10-03T15:35:37+02:00</time>
      </trkpt>
      <trkpt lat="48.23082" lon="-1.16334">
        <ele>205</ele>
        <time>2021-10-03T15:35:45+02:00</time>
      </trkpt>
      <trkpt lat="48.23082" lon="-1.16349">
        <ele>205</ele>
        <time>2021-10-03T15:35:53+02:00</time>
      </trkpt>
      <trkpt lat="48.23083" lon="-1.16363">
        <ele>205</ele>
        <time>2021-10-03T15:36:02+02:00</time>
      </trkpt>
      <trkpt lat="48.23085" lon="-1.16378">
        <ele>206</ele>
        <time>2021-10-03T15:36:10+02:00</time>
      </trkpt>
      <trkpt lat="48.23086" lon="-1.16391">
        <ele>207</ele>
        <time>2021-10-03T15:36:18+02:00</time>
      </trkpt>
      <trkpt lat="48.23087" lon="-1.16405">
        <ele>207</ele>
        <time>2021-10-03T15:36:26+02:00</time>
      </trkpt>
      <trkpt lat="48.23089" lon="-1.16419">
        <ele>208</ele>
        <time>2021-10-03T15:36:35+02:00</time>
      </trkpt>
      <trkpt lat="48.23089" lon="-1.16434">
        <ele>208</ele>
        <time>2021-10-03T15:36:44+02:00</time>
      </trkpt>
      <trkpt lat="48.23089" lon="-1.16448">
        <ele>207</ele>
        <time>2021-10-03T15:36:52+02:00</time>
      </trkpt>
      <trkpt lat="48.23089" lon="-1.16462">
        <ele>208</ele>
        <time>2021-10-03T15:37:00+02:00</time>
      </trkpt>
      <trkpt lat="48.23087" lon="-1.16477">
        <ele>207</ele>
        <time>2021-10-03T15:37:08+02:00</time>
      </trkpt>
      <trkpt lat="48.23085" lon="-1.16491">
        <ele>208</ele>
        <time>2021-10-03T15:37:15+02:00</time>
      </trkpt>
      <trkpt lat="48.23083" lon="-1.16504">
        <ele>207</ele>
        <time>2021-10-03T15:37:23+02:00</time>
      </trkpt>
      <trkpt lat="48.23083" lon="-1.16518">
        <ele>207</ele>
        <time>2021-10-03T15:37:32+02:00</time>
      </trkpt>
      <trkpt lat="48.2308" lon="-1.16532">
        <ele>207</ele>
        <time>2021-10-03T15:37:41+02:00</time>
      </trkpt>
      <trkpt lat="48.23079" lon="-1.16546">
        <ele>207</ele>
        <time>2021-10-03T15:37:49+02:00</time>
      </trkpt>
      <trkpt lat="48.23079" lon="-1.16559">
        <ele>207</ele>
        <time>2021-10-03T15:37:56+02:00</time>
      </trkpt>
      <trkpt lat="48.2308" lon="-1.16574">
        <ele>207</ele>
        <time>2021-10-03T15:38:04+02:00</time>
      </trkpt>
      <trkpt lat="48.2308" lon="-1.16588">
        <ele>207</ele>
        <time>2021-10-03T15:38:12+02:00</time>
      </trkpt>
      <trkpt lat="48.2308" lon="-1.16603">
        <ele>207</ele>
        <time>2021-10-03T15:38:20+02:00</time>
      </trkpt>
      <trkpt lat="48.23081" lon="-1.16616">
        <ele>208</ele>
        <time>2021-10-03T15:38:28+02:00</time>
      </trkpt>
      <trkpt lat="48.23081" lon="-1.16631">
        <ele>208</ele>
        <time>2021-10-03T15:38:37+02:00</time>
      </trkpt>
      <trkpt lat="48.23081" lon="-1.16644">
        <ele>208</ele>
        <time>2021-10-03T15:38:45+02:00</time>
      </trkpt>
      <trkpt lat="48.23081" lon="-1.16659">
        <ele>208</ele>
        <time>2021-10-03T15:38:54+02:00</time>
      </trkpt>
      <trkpt lat="48.23081" lon="-1.16674">
        <ele>208</ele>
        <time>2021-10-03T15:39:02+02:00</time>
      </trkpt>
      <trkpt lat="48.23081" lon="-1.16688">
        <ele>208</ele>
        <time>2021-10-03T15:39:12+02:00</time>
      </trkpt>
      <trkpt lat="48.2308" lon="-1.16703">
        <ele>207</ele>
        <time>2021-10-03T15:39:20+02:00</time>
      </trkpt>
      <trkpt lat="48.2308" lon="-1.16718">
        <ele>207</ele>
        <time>2021-10-03T15:39:29+02:00</time>
      </trkpt>
      <trkpt lat="48.2308" lon="-1.16732">
        <ele>206</ele>
        <time>2021-10-03T15:39:38+02:00</time>
      </trkpt>
      <trkpt lat="48.2308" lon="-1.16746">
        <ele>207</ele>
        <time>2021-10-03T15:39:46+02:00</time>
      </trkpt>
      <trkpt lat="48.2308" lon="-1.1676">
        <ele>207</ele>
        <time>2021-10-03T15:39:55+02:00</time>
      </trkpt>
      <trkpt lat="48.2308" lon="-1.16775">
        <ele>208</ele>
        <time>2021-10-03T15:40:05+02:00</time>
      </trkpt>
      <trkpt lat="48.2308" lon="-1.16788">
        <ele>208</ele>
        <time>2021-10-03T15:40:14+02:00</time>
      </trkpt>
      <trkpt lat="48.23079" lon="-1.16802">
        <ele>206</ele>
        <time>2021-10-03T15:40:26+02:00</time>
      </trkpt>
      <trkpt lat="48.23081" lon="-1.16816">
        <ele>206</ele>
        <time>2021-10-03T15:40:37+02:00</time>
      </trkpt>
      <trkpt lat="48.23082" lon="-1.1683">
        <ele>204</ele>
        <time>2021-10-03T15:40:45+02:00</time>
      </trkpt>
      <trkpt lat="48.23085" lon="-1.16844">
        <ele>203</ele>
        <time>2021-10-03T15:40:54+02:00</time>
      </trkpt>
      <trkpt lat="48.23089" lon="-1.16857">
        <ele>203</ele>
        <time>2021-10-03T15:41:03+02:00</time>
      </trkpt>
      <trkpt lat="48.23094" lon="-1.16872">
        <ele>203</ele>
        <time>2021-10-03T15:41:13+02:00</time>
      </trkpt>
      <trkpt lat="48.23098" lon="-1.16884">
        <ele>203</ele>
        <time>2021-10-03T15:41:21+02:00</time>
      </trkpt>
      <trkpt lat="48.23102" lon="-1.16898">
        <ele>202</ele>
        <time>2021-10-03T15:41:30+02:00</time>
      </trkpt>
      <trkpt lat="48.23108" lon="-1.16908">
        <ele>201</ele>
        <time>2021-10-03T15:41:39+02:00</time>
      </trkpt>
      <trkpt lat="48.23116" lon="-1.16917">
        <ele>200</ele>
        <time>2021-10-03T15:41:47+02:00</time>
      </trkpt>
      <trkpt lat="48.23122" lon="-1.16926">
        <ele>199</ele>
        <time>2021-10-03T15:41:55+02:00</time>
      </trkpt>
      <trkpt lat="48.23127" lon="-1.16938">
        <ele>198</ele>
        <time>2021-10-03T15:42:05+02:00</time>
      </trkpt>
      <trkpt lat="48.23125" lon="-1.16953">
        <ele>197</ele>
        <time>2021-10-03T15:42:15+02:00</time>
      </trkpt>
      <trkpt lat="48.2312" lon="-1.16964">
        <ele>198</ele>
        <time>2021-10-03T15:42:24+02:00</time>
      </trkpt>
      <trkpt lat="48.23121" lon="-1.16978">
        <ele>197</ele>
        <time>2021-10-03T15:42:33+02:00</time>
      </trkpt>
      <trkpt lat="48.23121" lon="-1.16992">
        <ele>194</ele>
        <time>2021-10-03T15:42:42+02:00</time>
      </trkpt>
      <trkpt lat="48.23122" lon="-1.17006">
        <ele>196</ele>
        <time>2021-10-03T15:42:50+02:00</time>
      </trkpt>
      <trkpt lat="48.23125" lon="-1.17019">
        <ele>195</ele>
        <time>2021-10-03T15:42:59+02:00</time>
      </trkpt>
      <trkpt lat="48.23129" lon="-1.17032">
        <ele>195</ele>
        <time>2021-10-03T15:43:09+02:00</time>
      </trkpt>
      <trkpt lat="48.23134" lon="-1.17043">
        <ele>194</ele>
        <time>2021-10-03T15:43:18+02:00</time>
      </trkpt>
      <trkpt lat="48.23138" lon="-1.17057">
        <ele>195</ele>
        <time>2021-10-03T15:43:27+02:00</time>
      </trkpt>
      <trkpt lat="48.23141" lon="-1.17072">
        <ele>191</ele>
        <time>2021-10-03T15:43:35+02:00</time>
      </trkpt>
      <trkpt lat="48.23146" lon="-1.17084">
        <ele>190</ele>
        <time>2021-10-03T15:43:46+02:00</time>
      </trkpt>
      <trkpt lat="48.23151" lon="-1.17098">
        <ele>191</ele>
        <time>2021-10-03T15:43:55+02:00</time>
      </trkpt>
      <trkpt lat="48.23156" lon="-1.1711">
        <ele>191</ele>
        <time>2021-10-03T15:44:03+02:00</time>
      </trkpt>
      <trkpt lat="48.23159" lon="-1.17123">
        <ele>190</ele>
        <time>2021-10-03T15:44:12+02:00</time>
      </trkpt>
      <trkpt lat="48.23163" lon="-1.17137">
        <ele>191</ele>
        <time>2021-10-03T15:44:22+02:00</time>
      </trkpt>
      <trkpt lat="48.23166" lon="-1.17151">
        <ele>192</ele>
        <time>2021-10-03T15:44:30+02:00</time>
      </trkpt>
      <trkpt lat="48.23169" lon="-1.17165">
        <ele>190</ele>
        <time>2021-10-03T15:44:40+02:00</time>
      </trkpt>
      <trkpt lat="48.2317" lon="-1.17179">
        <ele>189</ele>
        <time>2021-10-03T15:44:48+02:00</time>
      </trkpt>
      <trkpt lat="48.23171" lon="-1.17194">
        <ele>186</ele>
        <time>2021-10-03T15:44:58+02:00</time>
      </trkpt>
      <trkpt lat="48.2317" lon="-1.17207">
        <ele>186</ele>
        <time>2021-10-03T15:45:06+02:00</time>
      </trkpt>
      <trkpt lat="48.23171" lon="-1.17221">
        <ele>181</ele>
        <time>2021-10-03T15:45:14+02:00</time>
      </trkpt>
      <trkpt lat="48.23173" lon="-1.17235">
        <ele>181</ele>
        <time>2021-10-03T15:45:21+02:00</time>
      </trkpt>
      <trkpt lat="48.23177" lon="-1.17248">
        <ele>178</ele>
        <time>2021-10-03T15:45:33+02:00</time>
      </trkpt>
      <trkpt lat="48.23179" lon="-1.17261">
        <ele>180</ele>
        <time>2021-10-03T15:45:50+02:00</time>
      </trkpt>
      <trkpt lat="48.23181" lon="-1.17274">
        <ele>180</ele>
        <time>2021-10-03T15:45:59+02:00</time>
      </trkpt>
      <trkpt lat="48.23184" lon="-1.17287">
        <ele>180</ele>
        <time>2021-10-03T15:46:08+02:00</time>
      </trkpt>
      <trkpt lat="48.23187" lon="-1.17301">
        <ele>180</ele>
        <time>2021-10-03T15:46:17+02:00</time>
      </trkpt>
      <trkpt lat="48.23189" lon="-1.17315">
        <ele>180</ele>
        <time>2021-10-03T15:46:25+02:00</time>
      </trkpt>
      <trkpt lat="48.23191" lon="-1.17329">
        <ele>179</ele>
        <time>2021-10-03T15:46:30+02:00</time>
      </trkpt>
      <trkpt lat="48.23194" lon="-1.17342">
        <ele>173</ele>
        <time>2021-10-03T15:46:39+02:00</time>
      </trkpt>
      <trkpt lat="48.23197" lon="-1.17356">
        <ele>174</ele>
        <time>2021-10-03T15:46:50+02:00</time>
      </trkpt>
      <trkpt lat="48.23199" lon="-1.1737">
        <ele>176</ele>
        <time>2021-10-03T15:47:00+02:00</time>
      </trkpt>
      <trkpt lat="48.23202" lon="-1.17383">
        <ele>176</ele>
        <time>2021-10-03T15:47:09+02:00</time>
      </trkpt>
      <trkpt lat="48.23204" lon="-1.17398">
        <ele>176</ele>
        <time>2021-10-03T15:47:19+02:00</time>
      </trkpt>
      <trkpt lat="48.23207" lon="-1.17411">
        <ele>176</ele>
        <time>2021-10-03T15:47:30+02:00</time>
      </trkpt>
      <trkpt lat="48.23212" lon="-1.17424">
        <ele>176</ele>
        <time>2021-10-03T15:47:40+02:00</time>
      </trkpt>
      <trkpt lat="48.23215" lon="-1.17437">
        <ele>177</ele>
        <time>2021-10-03T15:47:50+02:00</time>
      </trkpt>
      <trkpt lat="48.2322" lon="-1.17449">
        <ele>174</ele>
        <time>2021-10-03T15:48:00+02:00</time>
      </trkpt>
      <trkpt lat="48.23225" lon="-1.17462">
        <ele>175</ele>
        <time>2021-10-03T15:48:08+02:00</time>
      </trkpt>
      <trkpt lat="48.2323" lon="-1.17474">
        <ele>176</ele>
        <time>2021-10-03T15:48:16+02:00</time>
      </trkpt>
      <trkpt lat="48.23237" lon="-1.17485">
        <ele>175</ele>
        <time>2021-10-03T15:48:25+02:00</time>
      </trkpt>
      <trkpt lat="48.23244" lon="-1.17495">
        <ele>175</ele>
        <time>2021-10-03T15:48:35+02:00</time>
      </trkpt>
      <trkpt lat="48.23248" lon="-1.17508">
        <ele>174</ele>
        <time>2021-10-03T15:48:43+02:00</time>
      </trkpt>
      <trkpt lat="48.23252" lon="-1.17521">
        <ele>173</ele>
        <time>2021-10-03T15:48:53+02:00</time>
      </trkpt>
      <trkpt lat="48.23256" lon="-1.17532">
        <ele>173</ele>
        <time>2021-10-03T15:49:01+02:00</time>
      </trkpt>
      <trkpt lat="48.23262" lon="-1.17543">
        <ele>173</ele>
        <time>2021-10-03T15:49:10+02:00</time>
      </trkpt>
      <trkpt lat="48.23267" lon="-1.17555">
        <ele>174</ele>
        <time>2021-10-03T15:49:18+02:00</time>
      </trkpt>
      <trkpt lat="48.23272" lon="-1.17567">
        <ele>170</ele>
        <time>2021-10-03T15:49:42+02:00</time>
      </trkpt>
      <trkpt lat="48.23275" lon="-1.17581">
        <ele>167</ele>
        <time>2021-10-03T15:49:51+02:00</time>
      </trkpt>
      <trkpt lat="48.2328" lon="-1.17593">
        <ele>168</ele>
        <time>2021-10-03T15:49:58+02:00</time>
      </trkpt>
      <trkpt lat="48.23283" lon="-1.17607">
        <ele>169</ele>
        <time>2021-10-03T15:50:06+02:00</time>
      </trkpt>
      <trkpt lat="48.23286" lon="-1.1762">
        <ele>169</ele>
        <time>2021-10-03T15:50:14+02:00</time>
      </trkpt>
      <trkpt lat="48.2329" lon="-1.17633">
        <ele>169</ele>
        <time>2021-10-03T15:50:22+02:00</time>
      </trkpt>
      <trkpt lat="48.23293" lon="-1.17647">
        <ele>168</ele>
        <time>2021-10-03T15:50:31+02:00</time>
      </trkpt>
      <trkpt lat="48.23296" lon="-1.17661">
        <ele>167</ele>
        <time>2021-10-03T15:50:39+02:00</time>
      </trkpt>
      <trkpt lat="48.23299" lon="-1.17676">
        <ele>167</ele>
        <time>2021-10-03T15:50:48+02:00</time>
      </trkpt>
      <trkpt lat="48.23301" lon="-1.17689">
        <ele>167</ele>
        <time>2021-10-03T15:50:56+02:00</time>
      </trkpt>
      <trkpt lat="48.23305" lon="-1.17702">
        <ele>167</ele>
        <time>2021-10-03T15:51:04+02:00</time>
      </trkpt>
      <trkpt lat="48.23311" lon="-1.17714">
        <ele>162</ele>
        <time>2021-10-03T15:51:19+02:00</time>
      </trkpt>
      <trkpt lat="48.23316" lon="-1.17726">
        <ele>164</ele>
        <time>2021-10-03T15:51:28+02:00</time>
      </trkpt>
      <trkpt lat="48.23326" lon="-1.17726">
        <ele>163</ele>
        <time>2021-10-03T15:51:38+02:00</time>
      </trkpt>
      <trkpt lat="48.23334" lon="-1.17731">
        <ele>164</ele>
        <time>2021-10-03T15:51:46+02:00</time>
      </trkpt>
      <trkpt lat="48.23339" lon="-1.17744">
        <ele>160</ele>
        <time>2021-10-03T15:51:54+02:00</time>
      </trkpt>
      <trkpt lat="48.23343" lon="-1.17758">
        <ele>162</ele>
        <time>2021-10-03T15:52:06+02:00</time>
      </trkpt>
      <trkpt lat="48.23341" lon="-1.17772">
        <ele>159</ele>
        <time>2021-10-03T15:52:14+02:00</time>
      </trkpt>
      <trkpt lat="48.23348" lon="-1.17781">
        <ele>161</ele>
        <time>2021-10-03T15:52:21+02:00</time>
      </trkpt>
      <trkpt lat="48.23352" lon="-1.17795">
        <ele>161</ele>
        <time>2021-10-03T15:52:29+02:00</time>
      </trkpt>
      <trkpt lat="48.23356" lon="-1.17807">
        <ele>159</ele>
        <time>2021-10-03T15:52:41+02:00</time>
      </trkpt>
      <trkpt lat="48.23359" lon="-1.17821">
        <ele>160</ele>
        <time>2021-10-03T15:52:55+02:00</time>
      </trkpt>
      <trkpt lat="48.2335" lon="-1.1783">
        <ele>160</ele>
        <time>2021-10-03T15:53:03+02:00</time>
      </trkpt>
      <trkpt lat="48.23342" lon="-1.17835">
        <ele>160</ele>
        <time>2021-10-03T15:53:10+02:00</time>
      </trkpt>
      <trkpt lat="48.23333" lon="-1.17842">
        <ele>158</ele>
        <time>2021-10-03T15:53:19+02:00</time>
      </trkpt>
      <trkpt lat="48.23329" lon="-1.17855">
        <ele>154</ele>
        <time>2021-10-03T15:53:32+02:00</time>
      </trkpt>
      <trkpt lat="48.23332" lon="-1.17869">
        <ele>155</ele>
        <time>2021-10-03T15:53:42+02:00</time>
      </trkpt>
      <trkpt lat="48.23335" lon="-1.17883">
        <ele>152</ele>
        <time>2021-10-03T15:53:51+02:00</time>
      </trkpt>
      <trkpt lat="48.23336" lon="-1.17897">
        <ele>152</ele>
        <time>2021-10-03T15:53:59+02:00</time>
      </trkpt>
      <trkpt lat="48.23339" lon="-1.17911">
        <ele>154</ele>
        <time>2021-10-03T15:54:08+02:00</time>
      </trkpt>
      <trkpt lat="48.23342" lon="-1.17924">
        <ele>154</ele>
        <time>2021-10-03T15:54:18+02:00</time>
      </trkpt>
      <trkpt lat="48.23343" lon="-1.17938">
        <ele>155</ele>
        <time>2021-10-03T15:54:30+02:00</time>
      </trkpt>
      <trkpt lat="48.23341" lon="-1.17952">
        <ele>155</ele>
        <time>2021-10-03T15:54:38+02:00</time>
      </trkpt>
      <trkpt lat="48.23333" lon="-1.17959">
        <ele>154</ele>
        <time>2021-10-03T15:54:54+02:00</time>
      </trkpt>
      <trkpt lat="48.23323" lon="-1.1796">
        <ele>154</ele>
        <time>2021-10-03T15:55:02+02:00</time>
      </trkpt>
      <trkpt lat="48.23314" lon="-1.17955">
        <ele>148</ele>
        <time>2021-10-03T15:55:14+02:00</time>
      </trkpt>
      <trkpt lat="48.23305" lon="-1.17955">
        <ele>146</ele>
        <time>2021-10-03T15:55:22+02:00</time>
      </trkpt>
      <trkpt lat="48.23296" lon="-1.17959">
        <ele>146</ele>
        <time>2021-10-03T15:55:32+02:00</time>
      </trkpt>
      <trkpt lat="48.23286" lon="-1.17957">
        <ele>147</ele>
        <time>2021-10-03T15:55:41+02:00</time>
      </trkpt>
      <trkpt lat="48.23277" lon="-1.17958">
        <ele>146</ele>
        <time>2021-10-03T15:55:48+02:00</time>
      </trkpt>
      <trkpt lat="48.23268" lon="-1.17961">
        <ele>147</ele>
        <time>2021-10-03T15:55:56+02:00</time>
      </trkpt>
      <trkpt lat="48.2326" lon="-1.17966">
        <ele>149</ele>
        <time>2021-10-03T15:56:06+02:00</time>
      </trkpt>
      <trkpt lat="48.23251" lon="-1.17972">
        <ele>151</ele>
        <time>2021-10-03T15:56:16+02:00</time>
      </trkpt>
      <trkpt lat="48.23241" lon="-1.17976">
        <ele>151</ele>
        <time>2021-10-03T15:56:25+02:00</time>
      </trkpt>
      <trkpt lat="48.23231" lon="-1.1798">
        <ele>150</ele>
        <time>2021-10-03T15:56:34+02:00</time>
      </trkpt>
      <trkpt lat="48.23223" lon="-1.17988">
        <ele>152</ele>
        <time>2021-10-03T15:56:44+02:00</time>
      </trkpt>
      <trkpt lat="48.23215" lon="-1.17994">
        <ele>152</ele>
        <time>2021-10-03T15:56:54+02:00</time>
      </trkpt>
      <trkpt lat="48.23207" lon="-1.18002">
        <ele>153</ele>
        <time>2021-10-03T15:57:03+02:00</time>
      </trkpt>
      <trkpt lat="48.23199" lon="-1.1801">
        <ele>152</ele>
        <time>2021-10-03T15:57:13+02:00</time>
      </trkpt>
      <trkpt lat="48.23191" lon="-1.18017">
        <ele>152</ele>
        <time>2021-10-03T15:57:21+02:00</time>
      </trkpt>
      <trkpt lat="48.23184" lon="-1.18025">
        <ele>152</ele>
        <time>2021-10-03T15:57:29+02:00</time>
      </trkpt>
      <trkpt lat="48.23176" lon="-1.18033">
        <ele>152</ele>
        <time>2021-10-03T15:57:38+02:00</time>
      </trkpt>
      <trkpt lat="48.23168" lon="-1.18043">
        <ele>150</ele>
        <time>2021-10-03T15:57:46+02:00</time>
      </trkpt>
      <trkpt lat="48.23158" lon="-1.18047">
        <ele>148</ele>
        <time>2021-10-03T15:57:54+02:00</time>
      </trkpt>
      <trkpt lat="48.23149" lon="-1.18047">
        <ele>153</ele>
        <time>2021-10-03T15:58:05+02:00</time>
      </trkpt>
      <trkpt lat="48.2314" lon="-1.18052">
        <ele>157</ele>
        <time>2021-10-03T15:58:16+02:00</time>
      </trkpt>
      <trkpt lat="48.23131" lon="-1.18058">
        <ele>156</ele>
        <time>2021-10-03T15:58:25+02:00</time>
      </trkpt>
      <trkpt lat="48.23123" lon="-1.18065">
        <ele>155</ele>
        <time>2021-10-03T15:58:33+02:00</time>
      </trkpt>
      <trkpt lat="48.23114" lon="-1.18072">
        <ele>155</ele>
        <time>2021-10-03T15:58:42+02:00</time>
      </trkpt>
      <trkpt lat="48.23106" lon="-1.18078">
        <ele>157</ele>
        <time>2021-10-03T15:58:51+02:00</time>
      </trkpt>
      <trkpt lat="48.23099" lon="-1.18089">
        <ele>157</ele>
        <time>2021-10-03T15:59:02+02:00</time>
      </trkpt>
      <trkpt lat="48.23097" lon="-1.18102">
        <ele>152</ele>
        <time>2021-10-03T15:59:41+02:00</time>
      </trkpt>
      <trkpt lat="48.23089" lon="-1.18092">
        <ele>146</ele>
        <time>2021-10-03T16:00:30+02:00</time>
      </trkpt>
      <trkpt lat="48.23081" lon="-1.18097">
        <ele>152</ele>
        <time>2021-10-03T16:00:42+02:00</time>
      </trkpt>
      <trkpt lat="48.23073" lon="-1.18107">
        <ele>146</ele>
        <time>2021-10-03T16:01:25+02:00</time>
      </trkpt>
      <trkpt lat="48.23063" lon="-1.18112">
        <ele>148</ele>
        <time>2021-10-03T16:01:51+02:00</time>
      </trkpt>
      <trkpt lat="48.23054" lon="-1.18116">
        <ele>150</ele>
        <time>2021-10-03T16:01:59+02:00</time>
      </trkpt>
      <trkpt lat="48.23045" lon="-1.18117">
        <ele>154</ele>
        <time>2021-10-03T16:02:09+02:00</time>
      </trkpt>
      <trkpt lat="48.23035" lon="-1.18118">
        <ele>153</ele>
        <time>2021-10-03T16:02:19+02:00</time>
      </trkpt>
      <trkpt lat="48.23026" lon="-1.18116">
        <ele>148</ele>
        <time>2021-10-03T16:02:31+02:00</time>
      </trkpt>
      <trkpt lat="48.23018" lon="-1.18108">
        <ele>150</ele>
        <time>2021-10-03T16:02:42+02:00</time>
      </trkpt>
      <trkpt lat="48.2301" lon="-1.18101">
        <ele>151</ele>
        <time>2021-10-03T16:02:52+02:00</time>
      </trkpt>
      <trkpt lat="48.23001" lon="-1.18093">
        <ele>152</ele>
        <time>2021-10-03T16:03:01+02:00</time>
      </trkpt>
      <trkpt lat="48.22993" lon="-1.18088">
        <ele>153</ele>
        <time>2021-10-03T16:03:10+02:00</time>
      </trkpt>
      <trkpt lat="48.22984" lon="-1.18083">
        <ele>155</ele>
        <time>2021-10-03T16:03:20+02:00</time>
      </trkpt>
      <trkpt lat="48.22973" lon="-1.18079">
        <ele>155</ele>
        <time>2021-10-03T16:03:28+02:00</time>
      </trkpt>
      <trkpt lat="48.22968" lon="-1.18068">
        <ele>153</ele>
        <time>2021-10-03T16:03:42+02:00</time>
      </trkpt>
      <trkpt lat="48.22959" lon="-1.18062">
        <ele>153</ele>
        <time>2021-10-03T16:03:52+02:00</time>
      </trkpt>
      <trkpt lat="48.2295" lon="-1.18055">
        <ele>154</ele>
        <time>2021-10-03T16:04:00+02:00</time>
      </trkpt>
      <trkpt lat="48.22942" lon="-1.18051">
        <ele>154</ele>
        <time>2021-10-03T16:04:07+02:00</time>
      </trkpt>
      <trkpt lat="48.22933" lon="-1.18042">
        <ele>154</ele>
        <time>2021-10-03T16:04:19+02:00</time>
      </trkpt>
      <trkpt lat="48.22924" lon="-1.18036">
        <ele>155</ele>
        <time>2021-10-03T16:04:28+02:00</time>
      </trkpt>
      <trkpt lat="48.22916" lon="-1.18032">
        <ele>155</ele>
        <time>2021-10-03T16:04:34+02:00</time>
      </trkpt>
      <trkpt lat="48.22909" lon="-1.18022">
        <ele>156</ele>
        <time>2021-10-03T16:04:49+02:00</time>
      </trkpt>
      <trkpt lat="48.22914" lon="-1.1801">
        <ele>161</ele>
        <time>2021-10-03T16:05:15+02:00</time>
      </trkpt>
      <trkpt lat="48.22921" lon="-1.18">
        <ele>161</ele>
        <time>2021-10-03T16:05:28+02:00</time>
      </trkpt>
      <trkpt lat="48.2293" lon="-1.17997">
        <ele>165</ele>
        <time>2021-10-03T16:05:40+02:00</time>
      </trkpt>
      <trkpt lat="48.22939" lon="-1.17994">
        <ele>163</ele>
        <time>2021-10-03T16:05:54+02:00</time>
      </trkpt>
      <trkpt lat="48.22947" lon="-1.17989">
        <ele>164</ele>
        <time>2021-10-03T16:06:03+02:00</time>
      </trkpt>
      <trkpt lat="48.22952" lon="-1.17976">
        <ele>166</ele>
        <time>2021-10-03T16:06:12+02:00</time>
      </trkpt>
      <trkpt lat="48.22948" lon="-1.17964">
        <ele>162</ele>
        <time>2021-10-03T16:06:24+02:00</time>
      </trkpt>
      <trkpt lat="48.22938" lon="-1.17963">
        <ele>160</ele>
        <time>2021-10-03T16:06:51+02:00</time>
      </trkpt>
      <trkpt lat="48.22929" lon="-1.17966">
        <ele>162</ele>
        <time>2021-10-03T16:07:01+02:00</time>
      </trkpt>
      <trkpt lat="48.2292" lon="-1.17969">
        <ele>163</ele>
        <time>2021-10-03T16:07:10+02:00</time>
      </trkpt>
      <trkpt lat="48.2291" lon="-1.17972">
        <ele>161</ele>
        <time>2021-10-03T16:07:22+02:00</time>
      </trkpt>
      <trkpt lat="48.229" lon="-1.17972">
        <ele>160</ele>
        <time>2021-10-03T16:07:30+02:00</time>
      </trkpt>
      <trkpt lat="48.22891" lon="-1.17975">
        <ele>163</ele>
        <time>2021-10-03T16:07:40+02:00</time>
      </trkpt>
      <trkpt lat="48.22883" lon="-1.17981">
        <ele>161</ele>
        <time>2021-10-03T16:07:50+02:00</time>
      </trkpt>
      <trkpt lat="48.22873" lon="-1.17984">
        <ele>161</ele>
        <time>2021-10-03T16:07:59+02:00</time>
      </trkpt>
      <trkpt lat="48.22864" lon="-1.17988">
        <ele>160</ele>
        <time>2021-10-03T16:08:08+02:00</time>
      </trkpt>
      <trkpt lat="48.22855" lon="-1.17994">
        <ele>159</ele>
        <time>2021-10-03T16:08:18+02:00</time>
      </trkpt>
      <trkpt lat="48.22847" lon="-1.18">
        <ele>159</ele>
        <time>2021-10-03T16:08:27+02:00</time>
      </trkpt>
      <trkpt lat="48.22838" lon="-1.18007">
        <ele>159</ele>
        <time>2021-10-03T16:08:37+02:00</time>
      </trkpt>
      <trkpt lat="48.22829" lon="-1.18012">
        <ele>157</ele>
        <time>2021-10-03T16:08:46+02:00</time>
      </trkpt>
      <trkpt lat="48.22823" lon="-1.18001">
        <ele>155</ele>
        <time>2021-10-03T16:08:58+02:00</time>
      </trkpt>
      <trkpt lat="48.22826" lon="-1.17987">
        <ele>153</ele>
        <time>2021-10-03T16:09:24+02:00</time>
      </trkpt>
      <trkpt lat="48.2282" lon="-1.17976">
        <ele>155</ele>
        <time>2021-10-03T16:09:32+02:00</time>
      </trkpt>
      <trkpt lat="48.2281" lon="-1.17972">
        <ele>151</ele>
        <time>2021-10-03T16:09:41+02:00</time>
      </trkpt>
      <trkpt lat="48.22802" lon="-1.17964">
        <ele>152</ele>
        <time>2021-10-03T16:09:49+02:00</time>
      </trkpt>
      <trkpt lat="48.2279" lon="-1.17955">
        <ele>151</ele>
        <time>2021-10-03T16:09:59+02:00</time>
      </trkpt>
      <trkpt lat="48.22782" lon="-1.1795">
        <ele>155</ele>
        <time>2021-10-03T16:10:10+02:00</time>
      </trkpt>
      <trkpt lat="48.22773" lon="-1.17947">
        <ele>156</ele>
        <time>2021-10-03T16:10:21+02:00</time>
      </trkpt>
      <trkpt lat="48.22763" lon="-1.17944">
        <ele>157</ele>
        <time>2021-10-03T16:10:31+02:00</time>
      </trkpt>
      <trkpt lat="48.22754" lon="-1.17943">
        <ele>157</ele>
        <time>2021-10-03T16:10:42+02:00</time>
      </trkpt>
      <trkpt lat="48.22744" lon="-1.17942">
        <ele>153</ele>
        <time>2021-10-03T16:10:49+02:00</time>
      </trkpt>
      <trkpt lat="48.22734" lon="-1.17939">
        <ele>154</ele>
        <time>2021-10-03T16:10:59+02:00</time>
      </trkpt>
      <trkpt lat="48.22724" lon="-1.1794">
        <ele>154</ele>
        <time>2021-10-03T16:11:11+02:00</time>
      </trkpt>
      <trkpt lat="48.22715" lon="-1.1794">
        <ele>155</ele>
        <time>2021-10-03T16:11:21+02:00</time>
      </trkpt>
      <trkpt lat="48.22706" lon="-1.17938">
        <ele>157</ele>
        <time>2021-10-03T16:11:30+02:00</time>
      </trkpt>
      <trkpt lat="48.22697" lon="-1.17937">
        <ele>160</ele>
        <time>2021-10-03T16:11:39+02:00</time>
      </trkpt>
      <trkpt lat="48.22686" lon="-1.17934">
        <ele>161</ele>
        <time>2021-10-03T16:11:49+02:00</time>
      </trkpt>
      <trkpt lat="48.22678" lon="-1.17927">
        <ele>156</ele>
        <time>2021-10-03T16:11:57+02:00</time>
      </trkpt>
      <trkpt lat="48.22668" lon="-1.17924">
        <ele>153</ele>
        <time>2021-10-03T16:12:06+02:00</time>
      </trkpt>
      <trkpt lat="48.22658" lon="-1.17919">
        <ele>152</ele>
        <time>2021-10-03T16:12:15+02:00</time>
      </trkpt>
      <trkpt lat="48.22649" lon="-1.17917">
        <ele>157</ele>
        <time>2021-10-03T16:12:27+02:00</time>
      </trkpt>
      <trkpt lat="48.2264" lon="-1.17915">
        <ele>161</ele>
        <time>2021-10-03T16:12:37+02:00</time>
      </trkpt>
      <trkpt lat="48.2263" lon="-1.17912">
        <ele>161</ele>
        <time>2021-10-03T16:12:47+02:00</time>
      </trkpt>
      <trkpt lat="48.22623" lon="-1.17903">
        <ele>162</ele>
        <time>2021-10-03T16:12:56+02:00</time>
      </trkpt>
      <trkpt lat="48.22625" lon="-1.17889">
        <ele>164</ele>
        <time>2021-10-03T16:13:07+02:00</time>
      </trkpt>
      <trkpt lat="48.22629" lon="-1.17877">
        <ele>163</ele>
        <time>2021-10-03T16:13:16+02:00</time>
      </trkpt>
      <trkpt lat="48.22628" lon="-1.17863">
        <ele>166</ele>
        <time>2021-10-03T16:13:26+02:00</time>
      </trkpt>
      <trkpt lat="48.22626" lon="-1.17849">
        <ele>165</ele>
        <time>2021-10-03T16:13:36+02:00</time>
      </trkpt>
      <trkpt lat="48.22626" lon="-1.17835">
        <ele>168</ele>
        <time>2021-10-03T16:13:47+02:00</time>
      </trkpt>
      <trkpt lat="48.22622" lon="-1.17823">
        <ele>168</ele>
        <time>2021-10-03T16:13:57+02:00</time>
      </trkpt>
      <trkpt lat="48.22613" lon="-1.17815">
        <ele>169</ele>
        <time>2021-10-03T16:14:06+02:00</time>
      </trkpt>
      <trkpt lat="48.22607" lon="-1.17805">
        <ele>165</ele>
        <time>2021-10-03T16:14:17+02:00</time>
      </trkpt>
      <trkpt lat="48.22597" lon="-1.17803">
        <ele>166</ele>
        <time>2021-10-03T16:14:27+02:00</time>
      </trkpt>
      <trkpt lat="48.22593" lon="-1.1779">
        <ele>167</ele>
        <time>2021-10-03T16:14:37+02:00</time>
      </trkpt>
      <trkpt lat="48.22592" lon="-1.17777">
        <ele>164</ele>
        <time>2021-10-03T16:14:48+02:00</time>
      </trkpt>
      <trkpt lat="48.22591" lon="-1.17762">
        <ele>167</ele>
        <time>2021-10-03T16:14:58+02:00</time>
      </trkpt>
      <trkpt lat="48.2259" lon="-1.17749">
        <ele>170</ele>
        <time>2021-10-03T16:15:11+02:00</time>
      </trkpt>
      <trkpt lat="48.22588" lon="-1.17735">
        <ele>172</ele>
        <time>2021-10-03T16:15:21+02:00</time>
      </trkpt>
      <trkpt lat="48.2259" lon="-1.17722">
        <ele>173</ele>
        <time>2021-10-03T16:15:31+02:00</time>
      </trkpt>
      <trkpt lat="48.22591" lon="-1.17708">
        <ele>175</ele>
        <time>2021-10-03T16:15:43+02:00</time>
      </trkpt>
      <trkpt lat="48.22591" lon="-1.17694">
        <ele>175</ele>
        <time>2021-10-03T16:15:54+02:00</time>
      </trkpt>
      <trkpt lat="48.22592" lon="-1.17681">
        <ele>175</ele>
        <time>2021-10-03T16:16:03+02:00</time>
      </trkpt>
      <trkpt lat="48.22594" lon="-1.17666">
        <ele>174</ele>
        <time>2021-10-03T16:16:13+02:00</time>
      </trkpt>
      <trkpt lat="48.22595" lon="-1.17652">
        <ele>175</ele>
        <time>2021-10-03T16:16:23+02:00</time>
      </trkpt>
      <trkpt lat="48.22595" lon="-1.17639">
        <ele>175</ele>
        <time>2021-10-03T16:16:31+02:00</time>
      </trkpt>
      <trkpt lat="48.22596" lon="-1.17625">
        <ele>177</ele>
        <time>2021-10-03T16:16:40+02:00</time>
      </trkpt>
      <trkpt lat="48.22589" lon="-1.17617">
        <ele>180</ele>
        <time>2021-10-03T16:16:49+02:00</time>
      </trkpt>
      <trkpt lat="48.22582" lon="-1.17626">
        <ele>179</ele>
        <time>2021-10-03T16:16:56+02:00</time>
      </trkpt>
      <trkpt lat="48.22576" lon="-1.17638">
        <ele>177</ele>
        <time>2021-10-03T16:17:05+02:00</time>
      </trkpt>
      <trkpt lat="48.22569" lon="-1.17648">
        <ele>176</ele>
        <time>2021-10-03T16:17:20+02:00</time>
      </trkpt>
      <trkpt lat="48.22566" lon="-1.17661">
        <ele>178</ele>
        <time>2021-10-03T16:17:35+02:00</time>
      </trkpt>
      <trkpt lat="48.22561" lon="-1.17673">
        <ele>176</ele>
        <time>2021-10-03T16:17:42+02:00</time>
      </trkpt>
      <trkpt lat="48.22554" lon="-1.17682">
        <ele>171</ele>
        <time>2021-10-03T16:17:51+02:00</time>
      </trkpt>
      <trkpt lat="48.22552" lon="-1.17698">
        <ele>172</ele>
        <time>2021-10-03T16:18:05+02:00</time>
      </trkpt>
      <trkpt lat="48.22543" lon="-1.17697">
        <ele>175</ele>
        <time>2021-10-03T16:18:17+02:00</time>
      </trkpt>
      <trkpt lat="48.22539" lon="-1.17684">
        <ele>178</ele>
        <time>2021-10-03T16:18:27+02:00</time>
      </trkpt>
      <trkpt lat="48.22537" lon="-1.17671">
        <ele>179</ele>
        <time>2021-10-03T16:18:35+02:00</time>
      </trkpt>
      <trkpt lat="48.22537" lon="-1.17657">
        <ele>181</ele>
        <time>2021-10-03T16:18:46+02:00</time>
      </trkpt>
      <trkpt lat="48.22537" lon="-1.17642">
        <ele>183</ele>
        <time>2021-10-03T16:18:55+02:00</time>
      </trkpt>
      <trkpt lat="48.22536" lon="-1.17628">
        <ele>186</ele>
        <time>2021-10-03T16:19:04+02:00</time>
      </trkpt>
      <trkpt lat="48.22537" lon="-1.17615">
        <ele>185</ele>
        <time>2021-10-03T16:19:12+02:00</time>
      </trkpt>
      <trkpt lat="48.22538" lon="-1.17601">
        <ele>184</ele>
        <time>2021-10-03T16:19:20+02:00</time>
      </trkpt>
      <trkpt lat="48.22529" lon="-1.176">
        <ele>182</ele>
        <time>2021-10-03T16:19:34+02:00</time>
      </trkpt>
      <trkpt lat="48.22522" lon="-1.17586">
        <ele>180</ele>
        <time>2021-10-03T16:19:42+02:00</time>
      </trkpt>
      <trkpt lat="48.22512" lon="-1.17588">
        <ele>179</ele>
        <time>2021-10-03T16:19:55+02:00</time>
      </trkpt>
      <trkpt lat="48.22503" lon="-1.17584">
        <ele>178</ele>
        <time>2021-10-03T16:20:00+02:00</time>
      </trkpt>
      <trkpt lat="48.22495" lon="-1.17589">
        <ele>180</ele>
        <time>2021-10-03T16:20:16+02:00</time>
      </trkpt>
      <trkpt lat="48.22486" lon="-1.17589">
        <ele>181</ele>
        <time>2021-10-03T16:20:30+02:00</time>
      </trkpt>
      <trkpt lat="48.22477" lon="-1.17588">
        <ele>182</ele>
        <time>2021-10-03T16:20:53+02:00</time>
      </trkpt>
      <trkpt lat="48.22467" lon="-1.17586">
        <ele>186</ele>
        <time>2021-10-03T16:23:12+02:00</time>
      </trkpt>
      <trkpt lat="48.22458" lon="-1.17585">
        <ele>183</ele>
        <time>2021-10-03T16:23:20+02:00</time>
      </trkpt>
      <trkpt lat="48.22451" lon="-1.17594">
        <ele>182</ele>
        <time>2021-10-03T16:23:33+02:00</time>
      </trkpt>
      <trkpt lat="48.22449" lon="-1.17609">
        <ele>181</ele>
        <time>2021-10-03T16:23:42+02:00</time>
      </trkpt>
      <trkpt lat="48.22453" lon="-1.17622">
        <ele>182</ele>
        <time>2021-10-03T16:23:51+02:00</time>
      </trkpt>
      <trkpt lat="48.2246" lon="-1.17631">
        <ele>181</ele>
        <time>2021-10-03T16:23:59+02:00</time>
      </trkpt>
      <trkpt lat="48.22451" lon="-1.17636">
        <ele>183</ele>
        <time>2021-10-03T16:24:27+02:00</time>
      </trkpt>
      <trkpt lat="48.22444" lon="-1.17629">
        <ele>184</ele>
        <time>2021-10-03T16:24:36+02:00</time>
      </trkpt>
      <trkpt lat="48.22436" lon="-1.17618">
        <ele>181</ele>
        <time>2021-10-03T16:24:46+02:00</time>
      </trkpt>
      <trkpt lat="48.22426" lon="-1.17613">
        <ele>179</ele>
        <time>2021-10-03T16:24:53+02:00</time>
      </trkpt>
      <trkpt lat="48.22417" lon="-1.17609">
        <ele>173</ele>
        <time>2021-10-03T16:24:59+02:00</time>
      </trkpt>
      <trkpt lat="48.22409" lon="-1.17601">
        <ele>174</ele>
        <time>2021-10-03T16:25:03+02:00</time>
      </trkpt>
      <trkpt lat="48.224" lon="-1.17603">
        <ele>178</ele>
        <time>2021-10-03T16:25:16+02:00</time>
      </trkpt>
      <trkpt lat="48.22391" lon="-1.17598">
        <ele>178</ele>
        <time>2021-10-03T16:25:29+02:00</time>
      </trkpt>
      <trkpt lat="48.22382" lon="-1.17593">
        <ele>177</ele>
        <time>2021-10-03T16:25:34+02:00</time>
      </trkpt>
      <trkpt lat="48.22372" lon="-1.17591">
        <ele>172</ele>
        <time>2021-10-03T16:25:44+02:00</time>
      </trkpt>
      <trkpt lat="48.22363" lon="-1.17583">
        <ele>175</ele>
        <time>2021-10-03T16:25:52+02:00</time>
      </trkpt>
      <trkpt lat="48.22357" lon="-1.17573">
        <ele>178</ele>
        <time>2021-10-03T16:26:01+02:00</time>
      </trkpt>
      <trkpt lat="48.22351" lon="-1.17563">
        <ele>175</ele>
        <time>2021-10-03T16:26:55+02:00</time>
      </trkpt>
      <trkpt lat="48.22343" lon="-1.17555">
        <ele>176</ele>
        <time>2021-10-03T16:27:06+02:00</time>
      </trkpt>
      <trkpt lat="48.2234" lon="-1.17539">
        <ele>179</ele>
        <time>2021-10-03T16:27:16+02:00</time>
      </trkpt>
      <trkpt lat="48.22343" lon="-1.17527">
        <ele>179</ele>
        <time>2021-10-03T16:27:29+02:00</time>
      </trkpt>
      <trkpt lat="48.22347" lon="-1.17513">
        <ele>177</ele>
        <time>2021-10-03T16:27:39+02:00</time>
      </trkpt>
      <trkpt lat="48.22354" lon="-1.17503">
        <ele>175</ele>
        <time>2021-10-03T16:27:50+02:00</time>
      </trkpt>
      <trkpt lat="48.22363" lon="-1.17511">
        <ele>178</ele>
        <time>2021-10-03T16:28:00+02:00</time>
      </trkpt>
      <trkpt lat="48.22368" lon="-1.17523">
        <ele>177</ele>
        <time>2021-10-03T16:28:45+02:00</time>
      </trkpt>
    </trkseg>
  </trk>
</gpx>